sensor_id;sensor_type;location;lat;lon;timestamp;P1;durP1;ratioP1;P2;durP2;ratioP2
53867;SDS011;41577;47.470;19.080;2022-08-03T00:00:14;1.85;;;1.42;;
53867;SDS011;41577;47.470;19.080;2022-08-03T00:00:28;3.08;;;1.55;;
53867;SDS011;41577;47.470;19.080;2022-08-03T00:00:43;2.13;;;1.45;;
53867;SDS011;41577;47.470;19.080;2022-08-03T00:00:58;1.60;;;1.50;;
53867;SDS011;41577;47.470;19.080;2022-08-03T00:01:14;2.10;;;1.60;;
53867;SDS011;41577;47.470;19.080;2022-08-03T00:01:28;3.80;;;1.77;;
53867;SDS011;41577;47.470;19.080;2022-08-03T00:01:43;2.70;;;1.70;;
53867;SDS011;41577;47.470;19.080;2022-08-03T00:01:58;1.65;;;1.55;;
53867;SDS011;41577;47.470;19.080;2022-08-03T00:02:14;1.70;;;1.60;;
53867;SDS011;41577;47.470;19.080;2022-08-03T00:02:29;2.38;;;1.40;;
53867;SDS011;41577;47.470;19.080;2022-08-03T00:02:43;4.25;;;1.40;;
53867;SDS011;41577;47.470;19.080;2022-08-03T00:02:57;4.97;;;1.50;;
53867;SDS011;41577;47.470;19.080;2022-08-03T00:03:13;2.72;;;1.52;;
53867;SDS011;41577;47.470;19.080;2022-08-03T00:03:28;1.70;;;1.60;;
53867;SDS011;41577;47.470;19.080;2022-08-03T00:03:44;1.67;;;1.55;;
53867;SDS011;41577;47.470;19.080;2022-08-03T00:03:58;2.17;;;1.33;;
53867;SDS011;41577;47.470;19.080;2022-08-03T00:04:13;1.73;;;1.25;;
53867;SDS011;41577;47.470;19.080;2022-08-03T00:04:28;1.52;;;1.30;;
53867;SDS011;41577;47.470;19.080;2022-08-03T00:04:43;1.92;;;1.65;;
53867;SDS011;41577;47.470;19.080;2022-08-03T00:04:57;2.13;;;1.90;;
53867;SDS011;41577;47.470;19.080;2022-08-03T00:05:11;2.20;;;1.80;;
53867;SDS011;41577;47.470;19.080;2022-08-03T00:05:27;2.13;;;1.67;;
53867;SDS011;41577;47.470;19.080;2022-08-03T00:05:45;5.53;;;1.75;;
53867;SDS011;41577;47.470;19.080;2022-08-03T00:06:00;3.17;;;1.60;;
53867;SDS011;41577;47.470;19.080;2022-08-03T00:06:14;1.75;;;1.60;;
53867;SDS011;41577;47.470;19.080;2022-08-03T00:06:28;1.70;;;1.60;;
53867;SDS011;41577;47.470;19.080;2022-08-03T00:06:43;1.52;;;1.42;;
53867;SDS011;41577;47.470;19.080;2022-08-03T00:06:57;3.85;;;1.45;;
53867;SDS011;41577;47.470;19.080;2022-08-03T00:07:12;4.13;;;1.50;;
53867;SDS011;41577;47.470;19.080;2022-08-03T00:07:26;2.50;;;1.60;;
53867;SDS011;41577;47.470;19.080;2022-08-03T00:07:40;1.95;;;1.52;;
53867;SDS011;41577;47.470;19.080;2022-08-03T00:07:54;1.80;;;1.67;;
53867;SDS011;41577;47.470;19.080;2022-08-03T00:08:09;1.85;;;1.67;;
53867;SDS011;41577;47.470;19.080;2022-08-03T00:08:24;1.83;;;1.73;;
53867;SDS011;41577;47.470;19.080;2022-08-03T00:08:39;2.10;;;1.90;;
53867;SDS011;41577;47.470;19.080;2022-08-03T00:08:53;2.25;;;1.92;;
53867;SDS011;41577;47.470;19.080;2022-08-03T00:09:07;2.13;;;1.90;;
53867;SDS011;41577;47.470;19.080;2022-08-03T00:09:22;1.95;;;1.85;;
53867;SDS011;41577;47.470;19.080;2022-08-03T00:09:37;2.35;;;1.90;;
53867;SDS011;41577;47.470;19.080;2022-08-03T00:09:51;2.95;;;1.80;;
53867;SDS011;41577;47.470;19.080;2022-08-03T00:10:05;2.75;;;1.65;;
53867;SDS011;41577;47.470;19.080;2022-08-03T00:10:20;1.63;;;1.45;;
53867;SDS011;41577;47.470;19.080;2022-08-03T00:10:34;1.33;;;1.23;;
53867;SDS011;41577;47.470;19.080;2022-08-03T00:10:48;1.67;;;1.45;;
53867;SDS011;41577;47.470;19.080;2022-08-03T00:11:03;2.38;;;1.80;;
53867;SDS011;41577;47.470;19.080;2022-08-03T00:11:21;2.20;;;1.60;;
53867;SDS011;41577;47.470;19.080;2022-08-03T00:11:36;1.50;;;1.33;;
53867;SDS011;41577;47.470;19.080;2022-08-03T00:11:51;2.85;;;1.55;;
53867;SDS011;41577;47.470;19.080;2022-08-03T00:12:05;3.20;;;1.80;;
53867;SDS011;41577;47.470;19.080;2022-08-03T00:12:19;2.95;;;1.83;;
53867;SDS011;41577;47.470;19.080;2022-08-03T00:12:33;3.37;;;1.73;;
53867;SDS011;41577;47.470;19.080;2022-08-03T00:12:48;3.22;;;1.52;;
53867;SDS011;41577;47.470;19.080;2022-08-03T00:13:04;6.63;;;1.58;;
53867;SDS011;41577;47.470;19.080;2022-08-03T00:13:19;6.40;;;1.70;;
53867;SDS011;41577;47.470;19.080;2022-08-03T00:13:33;1.35;;;1.25;;
53867;SDS011;41577;47.470;19.080;2022-08-03T00:13:48;1.27;;;1.17;;
53867;SDS011;41577;47.470;19.080;2022-08-03T00:14:03;1.27;;;1.17;;
53867;SDS011;41577;47.470;19.080;2022-08-03T00:14:18;2.13;;;1.42;;
53867;SDS011;41577;47.470;19.080;2022-08-03T00:14:33;2.50;;;1.60;;
53867;SDS011;41577;47.470;19.080;2022-08-03T00:14:49;1.60;;;1.35;;
53867;SDS011;41577;47.470;19.080;2022-08-03T00:15:03;2.63;;;1.63;;
53867;SDS011;41577;47.470;19.080;2022-08-03T00:15:19;3.10;;;1.58;;
53867;SDS011;41577;47.470;19.080;2022-08-03T00:15:34;1.67;;;1.20;;
53867;SDS011;41577;47.470;19.080;2022-08-03T00:15:48;1.48;;;1.30;;
53867;SDS011;41577;47.470;19.080;2022-08-03T00:16:04;1.75;;;1.50;;
53867;SDS011;41577;47.470;19.080;2022-08-03T00:16:20;1.77;;;1.50;;
53867;SDS011;41577;47.470;19.080;2022-08-03T00:16:34;1.55;;;1.33;;
53867;SDS011;41577;47.470;19.080;2022-08-03T00:16:49;1.42;;;1.27;;
53867;SDS011;41577;47.470;19.080;2022-08-03T00:17:04;1.40;;;1.30;;
53867;SDS011;41577;47.470;19.080;2022-08-03T00:17:18;1.33;;;1.23;;
53867;SDS011;41577;47.470;19.080;2022-08-03T00:17:33;1.50;;;1.40;;
53867;SDS011;41577;47.470;19.080;2022-08-03T00:17:48;2.88;;;1.55;;
53867;SDS011;41577;47.470;19.080;2022-08-03T00:18:02;3.00;;;1.60;;
53867;SDS011;41577;47.470;19.080;2022-08-03T00:18:16;1.65;;;1.55;;
53867;SDS011;41577;47.470;19.080;2022-08-03T00:18:30;1.70;;;1.42;;
53867;SDS011;41577;47.470;19.080;2022-08-03T00:18:46;1.60;;;1.50;;
53867;SDS011;41577;47.470;19.080;2022-08-03T00:18:59;1.80;;;1.70;;
53867;SDS011;41577;47.470;19.080;2022-08-03T00:19:13;2.00;;;1.77;;
53867;SDS011;41577;47.470;19.080;2022-08-03T00:19:29;2.58;;;1.90;;
53867;SDS011;41577;47.470;19.080;2022-08-03T00:19:44;2.15;;;1.95;;
53867;SDS011;41577;47.470;19.080;2022-08-03T00:19:59;1.80;;;1.70;;
53867;SDS011;41577;47.470;19.080;2022-08-03T00:20:13;1.95;;;1.52;;
53867;SDS011;41577;47.470;19.080;2022-08-03T00:20:27;2.15;;;1.52;;
53867;SDS011;41577;47.470;19.080;2022-08-03T00:20:42;1.77;;;1.52;;
53867;SDS011;41577;47.470;19.080;2022-08-03T00:20:56;2.05;;;1.73;;
53867;SDS011;41577;47.470;19.080;2022-08-03T00:21:11;2.60;;;1.75;;
53867;SDS011;41577;47.470;19.080;2022-08-03T00:21:26;3.70;;;1.60;;
53867;SDS011;41577;47.470;19.080;2022-08-03T00:21:42;3.17;;;1.75;;
53867;SDS011;41577;47.470;19.080;2022-08-03T00:21:57;1.88;;;1.77;;
53867;SDS011;41577;47.470;19.080;2022-08-03T00:22:11;1.98;;;1.80;;
53867;SDS011;41577;47.470;19.080;2022-08-03T00:22:25;1.90;;;1.65;;
53867;SDS011;41577;47.470;19.080;2022-08-03T00:22:39;1.70;;;1.60;;
53867;SDS011;41577;47.470;19.080;2022-08-03T00:22:54;1.85;;;1.70;;
53867;SDS011;41577;47.470;19.080;2022-08-03T00:23:08;1.75;;;1.60;;
53867;SDS011;41577;47.470;19.080;2022-08-03T00:23:24;1.60;;;1.45;;
53867;SDS011;41577;47.470;19.080;2022-08-03T00:23:38;1.85;;;1.65;;
53867;SDS011;41577;47.470;19.080;2022-08-03T00:23:52;1.83;;;1.73;;
53867;SDS011;41577;47.470;19.080;2022-08-03T00:24:07;1.90;;;1.80;;
53867;SDS011;41577;47.470;19.080;2022-08-03T00:24:21;2.85;;;1.73;;
53867;SDS011;41577;47.470;19.080;2022-08-03T00:24:36;3.70;;;1.80;;
53867;SDS011;41577;47.470;19.080;2022-08-03T00:24:50;2.83;;;1.90;;
53867;SDS011;41577;47.470;19.080;2022-08-03T00:25:06;3.47;;;1.75;;
53867;SDS011;41577;47.470;19.080;2022-08-03T00:25:20;3.70;;;1.70;;
53867;SDS011;41577;47.470;19.080;2022-08-03T00:25:35;2.72;;;1.80;;
53867;SDS011;41577;47.470;19.080;2022-08-03T00:25:49;2.33;;;1.90;;
53867;SDS011;41577;47.470;19.080;2022-08-03T00:26:03;1.75;;;1.65;;
53867;SDS011;41577;47.470;19.080;2022-08-03T00:26:17;1.70;;;1.60;;
53867;SDS011;41577;47.470;19.080;2022-08-03T00:26:34;2.13;;;1.70;;
53867;SDS011;41577;47.470;19.080;2022-08-03T00:26:49;2.85;;;1.73;;
53867;SDS011;41577;47.470;19.080;2022-08-03T00:27:05;3.30;;;1.70;;
53867;SDS011;41577;47.470;19.080;2022-08-03T00:27:19;2.60;;;1.60;;
53867;SDS011;41577;47.470;19.080;2022-08-03T00:27:33;1.92;;;1.73;;
53867;SDS011;41577;47.470;19.080;2022-08-03T00:27:48;2.20;;;1.60;;
53867;SDS011;41577;47.470;19.080;2022-08-03T00:28:02;2.95;;;1.77;;
53867;SDS011;41577;47.470;19.080;2022-08-03T00:28:17;2.70;;;2.03;;
53867;SDS011;41577;47.470;19.080;2022-08-03T00:28:32;2.08;;;1.85;;
53867;SDS011;41577;47.470;19.080;2022-08-03T00:28:46;2.05;;;1.67;;
53867;SDS011;41577;47.470;19.080;2022-08-03T00:29:00;2.75;;;1.85;;
53867;SDS011;41577;47.470;19.080;2022-08-03T00:29:15;3.20;;;1.95;;
53867;SDS011;41577;47.470;19.080;2022-08-03T00:29:29;2.97;;;1.75;;
53867;SDS011;41577;47.470;19.080;2022-08-03T00:29:44;3.05;;;1.85;;
53867;SDS011;41577;47.470;19.080;2022-08-03T00:29:59;2.33;;;2.03;;
53867;SDS011;41577;47.470;19.080;2022-08-03T00:30:13;2.45;;;2.28;;
53867;SDS011;41577;47.470;19.080;2022-08-03T00:30:28;2.83;;;2.63;;
53867;SDS011;41577;47.470;19.080;2022-08-03T00:30:42;3.30;;;3.00;;
53867;SDS011;41577;47.470;19.080;2022-08-03T00:30:56;3.70;;;3.30;;
53867;SDS011;41577;47.470;19.080;2022-08-03T00:31:11;3.22;;;2.90;;
53867;SDS011;41577;47.470;19.080;2022-08-03T00:31:26;3.05;;;2.53;;
53867;SDS011;41577;47.470;19.080;2022-08-03T00:31:40;2.60;;;2.15;;
53867;SDS011;41577;47.470;19.080;2022-08-03T00:31:54;1.90;;;1.80;;
53867;SDS011;41577;47.470;19.080;2022-08-03T00:32:08;3.90;;;2.03;;
53867;SDS011;41577;47.470;19.080;2022-08-03T00:32:23;4.00;;;2.00;;
53867;SDS011;41577;47.470;19.080;2022-08-03T00:32:38;2.08;;;1.98;;
53867;SDS011;41577;47.470;19.080;2022-08-03T00:32:53;2.20;;;2.10;;
53867;SDS011;41577;47.470;19.080;2022-08-03T00:33:10;1.90;;;1.80;;
53867;SDS011;41577;47.470;19.080;2022-08-03T00:33:24;2.85;;;1.77;;
53867;SDS011;41577;47.470;19.080;2022-08-03T00:33:38;4.40;;;1.83;;
53867;SDS011;41577;47.470;19.080;2022-08-03T00:33:54;2.65;;;1.90;;
53867;SDS011;41577;47.470;19.080;2022-08-03T00:34:09;2.05;;;1.95;;
53867;SDS011;41577;47.470;19.080;2022-08-03T00:34:24;2.25;;;1.92;;
53867;SDS011;41577;47.470;19.080;2022-08-03T00:34:40;4.07;;;2.08;;
53867;SDS011;41577;47.470;19.080;2022-08-03T00:34:54;3.88;;;2.17;;
53867;SDS011;41577;47.470;19.080;2022-08-03T00:35:12;2.72;;;2.10;;
53867;SDS011;41577;47.470;19.080;2022-08-03T00:35:25;2.40;;;2.07;;
53867;SDS011;41577;47.470;19.080;2022-08-03T00:35:40;2.72;;;2.03;;
53867;SDS011;41577;47.470;19.080;2022-08-03T00:35:54;4.30;;;2.00;;
53867;SDS011;41577;47.470;19.080;2022-08-03T00:36:08;3.83;;;1.90;;
53867;SDS011;41577;47.470;19.080;2022-08-03T00:36:24;2.63;;;1.85;;
53867;SDS011;41577;47.470;19.080;2022-08-03T00:36:40;3.53;;;1.90;;
53867;SDS011;41577;47.470;19.080;2022-08-03T00:36:54;4.55;;;2.03;;
53867;SDS011;41577;47.470;19.080;2022-08-03T00:37:08;5.05;;;1.92;;
53867;SDS011;41577;47.470;19.080;2022-08-03T00:37:23;2.70;;;1.48;;
53867;SDS011;41577;47.470;19.080;2022-08-03T00:37:37;1.70;;;1.60;;
53867;SDS011;41577;47.470;19.080;2022-08-03T00:37:51;1.77;;;1.67;;
53867;SDS011;41577;47.470;19.080;2022-08-03T00:38:05;1.77;;;1.67;;
53867;SDS011;41577;47.470;19.080;2022-08-03T00:38:21;1.70;;;1.60;;
53867;SDS011;41577;47.470;19.080;2022-08-03T00:38:35;1.55;;;1.45;;
53867;SDS011;41577;47.470;19.080;2022-08-03T00:38:50;2.03;;;1.60;;
53867;SDS011;41577;47.470;19.080;2022-08-03T00:39:04;2.25;;;1.80;;
53867;SDS011;41577;47.470;19.080;2022-08-03T00:39:18;2.90;;;1.90;;
53867;SDS011;41577;47.470;19.080;2022-08-03T00:39:33;2.67;;;1.80;;
53867;SDS011;41577;47.470;19.080;2022-08-03T00:39:47;2.00;;;1.80;;
53867;SDS011;41577;47.470;19.080;2022-08-03T00:40:05;1.70;;;1.60;;
53867;SDS011;41577;47.470;19.080;2022-08-03T00:40:20;1.70;;;1.50;;
53867;SDS011;41577;47.470;19.080;2022-08-03T00:40:34;1.83;;;1.50;;
53867;SDS011;41577;47.470;19.080;2022-08-03T00:40:49;5.72;;;1.60;;
53867;SDS011;41577;47.470;19.080;2022-08-03T00:41:03;5.65;;;1.50;;
53867;SDS011;41577;47.470;19.080;2022-08-03T00:41:17;1.40;;;1.30;;
53867;SDS011;41577;47.470;19.080;2022-08-03T00:41:32;1.90;;;1.70;;
53867;SDS011;41577;47.470;19.080;2022-08-03T00:41:47;2.38;;;1.80;;
53867;SDS011;41577;47.470;19.080;2022-08-03T00:42:01;2.20;;;1.63;;
53867;SDS011;41577;47.470;19.080;2022-08-03T00:42:15;1.98;;;1.60;;
53867;SDS011;41577;47.470;19.080;2022-08-03T00:42:29;1.77;;;1.60;;
53867;SDS011;41577;47.470;19.080;2022-08-03T00:42:46;2.00;;;1.70;;
53867;SDS011;41577;47.470;19.080;2022-08-03T00:43:03;2.25;;;1.70;;
53867;SDS011;41577;47.470;19.080;2022-08-03T00:43:23;2.22;;;1.77;;
53867;SDS011;41577;47.470;19.080;2022-08-03T00:43:38;2.10;;;2.00;;
53867;SDS011;41577;47.470;19.080;2022-08-03T00:43:54;2.22;;;1.95;;
53867;SDS011;41577;47.470;19.080;2022-08-03T00:44:08;1.97;;;1.53;;
53867;SDS011;41577;47.470;19.080;2022-08-03T00:44:22;3.10;;;1.65;;
53867;SDS011;41577;47.470;19.080;2022-08-03T00:44:38;3.50;;;1.73;;
53867;SDS011;41577;47.470;19.080;2022-08-03T00:44:52;2.67;;;1.60;;
53867;SDS011;41577;47.470;19.080;2022-08-03T00:45:08;2.42;;;1.73;;
53867;SDS011;41577;47.470;19.080;2022-08-03T00:45:23;1.90;;;1.80;;
53867;SDS011;41577;47.470;19.080;2022-08-03T00:45:40;5.38;;;1.92;;
53867;SDS011;41577;47.470;19.080;2022-08-03T00:45:54;6.63;;;1.90;;
53867;SDS011;41577;47.470;19.080;2022-08-03T00:46:09;3.78;;;1.50;;
53867;SDS011;41577;47.470;19.080;2022-08-03T00:46:23;2.45;;;1.58;;
53867;SDS011;41577;47.470;19.080;2022-08-03T00:46:38;2.53;;;1.83;;
53867;SDS011;41577;47.470;19.080;2022-08-03T00:46:53;4.22;;;2.13;;
53867;SDS011;41577;47.470;19.080;2022-08-03T00:47:07;3.97;;;2.00;;
53867;SDS011;41577;47.470;19.080;2022-08-03T00:47:22;1.67;;;1.58;;
53867;SDS011;41577;47.470;19.080;2022-08-03T00:47:37;4.97;;;2.05;;
53867;SDS011;41577;47.470;19.080;2022-08-03T00:47:52;5.03;;;2.28;;
53867;SDS011;41577;47.470;19.080;2022-08-03T00:48:09;2.53;;;1.95;;
53867;SDS011;41577;47.470;19.080;2022-08-03T00:48:24;1.65;;;1.55;;
53867;SDS011;41577;47.470;19.080;2022-08-03T00:48:39;1.30;;;1.30;;
53867;SDS011;41577;47.470;19.080;2022-08-03T00:48:54;1.90;;;1.25;;
53867;SDS011;41577;47.470;19.080;2022-08-03T00:49:08;2.35;;;1.35;;
53867;SDS011;41577;47.470;19.080;2022-08-03T00:49:22;2.08;;;1.52;;
53867;SDS011;41577;47.470;19.080;2022-08-03T00:49:37;2.17;;;1.48;;
53867;SDS011;41577;47.470;19.080;2022-08-03T00:49:53;1.90;;;1.55;;
53867;SDS011;41577;47.470;19.080;2022-08-03T00:50:08;1.90;;;1.80;;
53867;SDS011;41577;47.470;19.080;2022-08-03T00:50:23;3.85;;;1.85;;
53867;SDS011;41577;47.470;19.080;2022-08-03T00:50:38;5.00;;;1.60;;
53867;SDS011;41577;47.470;19.080;2022-08-03T00:50:54;2.90;;;1.30;;
53867;SDS011;41577;47.470;19.080;2022-08-03T00:51:08;1.67;;;1.50;;
53867;SDS011;41577;47.470;19.080;2022-08-03T00:51:23;3.65;;;1.80;;
53867;SDS011;41577;47.470;19.080;2022-08-03T00:51:38;4.72;;;1.77;;
53867;SDS011;41577;47.470;19.080;2022-08-03T00:51:53;3.85;;;1.67;;
53867;SDS011;41577;47.470;19.080;2022-08-03T00:52:07;2.80;;;1.55;;
53867;SDS011;41577;47.470;19.080;2022-08-03T00:52:22;1.75;;;1.48;;
53867;SDS011;41577;47.470;19.080;2022-08-03T00:52:37;1.80;;;1.50;;
53867;SDS011;41577;47.470;19.080;2022-08-03T00:52:52;1.58;;;1.45;;
53867;SDS011;41577;47.470;19.080;2022-08-03T00:53:07;1.63;;;1.40;;
53867;SDS011;41577;47.470;19.080;2022-08-03T00:53:24;1.58;;;1.42;;
53867;SDS011;41577;47.470;19.080;2022-08-03T00:53:39;1.40;;;1.30;;
53867;SDS011;41577;47.470;19.080;2022-08-03T00:53:54;1.30;;;1.20;;
53867;SDS011;41577;47.470;19.080;2022-08-03T00:54:08;2.00;;;1.30;;
53867;SDS011;41577;47.470;19.080;2022-08-03T00:54:23;2.13;;;1.45;;
53867;SDS011;41577;47.470;19.080;2022-08-03T00:54:39;1.60;;;1.50;;
53867;SDS011;41577;47.470;19.080;2022-08-03T00:54:53;1.63;;;1.52;;
53867;SDS011;41577;47.470;19.080;2022-08-03T00:55:17;1.38;;;1.27;;
53867;SDS011;41577;47.470;19.080;2022-08-03T00:55:31;1.77;;;1.20;;
53867;SDS011;41577;47.470;19.080;2022-08-03T00:55:45;2.00;;;1.30;;
53867;SDS011;41577;47.470;19.080;2022-08-03T00:55:59;2.35;;;1.40;;
53867;SDS011;41577;47.470;19.080;2022-08-03T00:56:13;1.60;;;1.40;;
53867;SDS011;41577;47.470;19.080;2022-08-03T00:56:31;2.00;;;1.60;;
53867;SDS011;41577;47.470;19.080;2022-08-03T00:56:46;2.30;;;1.50;;
53867;SDS011;41577;47.470;19.080;2022-08-03T00:57:01;1.40;;;1.17;;
53867;SDS011;41577;47.470;19.080;2022-08-03T00:57:15;1.42;;;1.33;;
53867;SDS011;41577;47.470;19.080;2022-08-03T00:57:30;1.65;;;1.50;;
53867;SDS011;41577;47.470;19.080;2022-08-03T00:57:46;2.03;;;1.40;;
53867;SDS011;41577;47.470;19.080;2022-08-03T00:58:03;1.77;;;1.13;;
53867;SDS011;41577;47.470;19.080;2022-08-03T00:58:19;0.93;;;0.93;;
53867;SDS011;41577;47.470;19.080;2022-08-03T00:58:34;3.08;;;1.23;;
53867;SDS011;41577;47.470;19.080;2022-08-03T00:58:49;3.80;;;1.50;;
53867;SDS011;41577;47.470;19.080;2022-08-03T00:59:05;1.83;;;1.48;;
53867;SDS011;41577;47.470;19.080;2022-08-03T00:59:19;2.80;;;1.40;;
53867;SDS011;41577;47.470;19.080;2022-08-03T00:59:35;2.33;;;1.20;;
53867;SDS011;41577;47.470;19.080;2022-08-03T00:59:51;1.20;;;1.10;;
53867;SDS011;41577;47.470;19.080;2022-08-03T01:00:09;1.67;;;1.30;;
53867;SDS011;41577;47.470;19.080;2022-08-03T01:00:26;1.58;;;1.42;;
53867;SDS011;41577;47.470;19.080;2022-08-03T01:00:41;1.10;;;1.00;;
53867;SDS011;41577;47.470;19.080;2022-08-03T01:00:55;2.40;;;1.00;;
53867;SDS011;41577;47.470;19.080;2022-08-03T01:01:14;2.78;;;1.27;;
53867;SDS011;41577;47.470;19.080;2022-08-03T01:01:30;1.88;;;1.50;;
53867;SDS011;41577;47.470;19.080;2022-08-03T01:01:44;1.52;;;1.35;;
53867;SDS011;41577;47.470;19.080;2022-08-03T01:01:59;1.17;;;1.17;;
53867;SDS011;41577;47.470;19.080;2022-08-03T01:02:13;1.17;;;1.17;;
53867;SDS011;41577;47.470;19.080;2022-08-03T01:02:28;1.20;;;1.13;;
53867;SDS011;41577;47.470;19.080;2022-08-03T01:02:44;2.88;;;1.20;;
53867;SDS011;41577;47.470;19.080;2022-08-03T01:02:59;2.60;;;1.25;;
53867;SDS011;41577;47.470;19.080;2022-08-03T01:03:14;1.38;;;1.27;;
53867;SDS011;41577;47.470;19.080;2022-08-03T01:03:28;1.40;;;1.30;;
53867;SDS011;41577;47.470;19.080;2022-08-03T01:03:42;1.10;;;1.10;;
53867;SDS011;41577;47.470;19.080;2022-08-03T01:03:57;1.10;;;1.00;;
53867;SDS011;41577;47.470;19.080;2022-08-03T01:04:12;1.08;;;1.00;;
53867;SDS011;41577;47.470;19.080;2022-08-03T01:04:26;1.00;;;1.00;;
53867;SDS011;41577;47.470;19.080;2022-08-03T01:04:42;0.90;;;0.90;;
53867;SDS011;41577;47.470;19.080;2022-08-03T01:04:58;2.10;;;1.15;;
53867;SDS011;41577;47.470;19.080;2022-08-03T01:05:12;2.67;;;1.42;;
53867;SDS011;41577;47.470;19.080;2022-08-03T01:05:31;2.10;;;1.48;;
53867;SDS011;41577;47.470;19.080;2022-08-03T01:05:52;1.40;;;1.30;;
53867;SDS011;41577;47.470;19.080;2022-08-03T01:06:15;1.15;;;1.15;;
53867;SDS011;41577;47.470;19.080;2022-08-03T01:06:32;2.30;;;1.25;;
53867;SDS011;41577;47.470;19.080;2022-08-03T01:06:55;2.25;;;1.33;;
53867;SDS011;41577;47.470;19.080;2022-08-03T01:07:21;1.20;;;1.10;;
53867;SDS011;41577;47.470;19.080;2022-08-03T01:07:46;1.60;;;1.00;;
53867;SDS011;41577;47.470;19.080;2022-08-03T01:08:14;2.25;;;1.25;;
53867;SDS011;41577;47.470;19.080;2022-08-03T01:08:36;2.17;;;1.25;;
53867;SDS011;41577;47.470;19.080;2022-08-03T01:09:00;1.40;;;1.30;;
53867;SDS011;41577;47.470;19.080;2022-08-03T01:09:20;1.85;;;1.10;;
53867;SDS011;41577;47.470;19.080;2022-08-03T01:09:43;1.13;;;1.13;;
53867;SDS011;41577;47.470;19.080;2022-08-03T01:10:05;1.30;;;1.20;;
53867;SDS011;41577;47.470;19.080;2022-08-03T01:10:27;1.10;;;1.08;;
53867;SDS011;41577;47.470;19.080;2022-08-03T01:10:57;1.40;;;1.30;;
53867;SDS011;41577;47.470;19.080;2022-08-03T01:11:22;1.52;;;1.17;;
53867;SDS011;41577;47.470;19.080;2022-08-03T01:11:39;5.68;;;1.20;;
53867;SDS011;41577;47.470;19.080;2022-08-03T01:12:01;1.13;;;1.00;;
53867;SDS011;41577;47.470;19.080;2022-08-03T01:12:21;0.90;;;0.90;;
53867;SDS011;41577;47.470;19.080;2022-08-03T01:12:46;1.17;;;1.08;;
53867;SDS011;41577;47.470;19.080;2022-08-03T01:13:13;3.80;;;1.08;;
53867;SDS011;41577;47.470;19.080;2022-08-03T01:13:34;1.20;;;1.10;;
53867;SDS011;41577;47.470;19.080;2022-08-03T01:14:00;2.13;;;1.42;;
53867;SDS011;41577;47.470;19.080;2022-08-03T01:14:19;1.70;;;1.30;;
53867;SDS011;41577;47.470;19.080;2022-08-03T01:14:43;1.50;;;1.17;;
53867;SDS011;41577;47.470;19.080;2022-08-03T01:15:07;1.48;;;0.90;;
53867;SDS011;41577;47.470;19.080;2022-08-03T01:15:28;1.10;;;1.00;;
53867;SDS011;41577;47.470;19.080;2022-08-03T01:15:49;1.08;;;1.08;;
53867;SDS011;41577;47.470;19.080;2022-08-03T01:16:12;1.50;;;1.30;;
53867;SDS011;41577;47.470;19.080;2022-08-03T01:16:36;1.48;;;1.20;;
53867;SDS011;41577;47.470;19.080;2022-08-03T01:17:00;1.15;;;1.05;;
53867;SDS011;41577;47.470;19.080;2022-08-03T01:17:18;1.20;;;1.10;;
53867;SDS011;41577;47.470;19.080;2022-08-03T01:17:43;1.42;;;1.00;;
53867;SDS011;41577;47.470;19.080;2022-08-03T01:18:05;4.05;;;1.02;;
53867;SDS011;41577;47.470;19.080;2022-08-03T01:18:25;1.33;;;1.20;;
53867;SDS011;41577;47.470;19.080;2022-08-03T01:18:44;1.33;;;1.08;;
53867;SDS011;41577;47.470;19.080;2022-08-03T01:19:11;1.45;;;1.27;;
53867;SDS011;41577;47.470;19.080;2022-08-03T01:19:46;1.85;;;1.27;;
53867;SDS011;41577;47.470;19.080;2022-08-03T01:20:08;1.52;;;1.00;;
53867;SDS011;41577;47.470;19.080;2022-08-03T01:20:26;1.80;;;1.10;;
53867;SDS011;41577;47.470;19.080;2022-08-03T01:20:46;1.75;;;1.25;;
53867;SDS011;41577;47.470;19.080;2022-08-03T01:21:06;1.58;;;1.05;;
53867;SDS011;41577;47.470;19.080;2022-08-03T01:21:25;1.67;;;1.15;;
53867;SDS011;41577;47.470;19.080;2022-08-03T01:21:45;1.35;;;1.15;;
53867;SDS011;41577;47.470;19.080;2022-08-03T01:22:18;1.25;;;1.10;;
53867;SDS011;41577;47.470;19.080;2022-08-03T01:22:51;1.38;;;1.27;;
53867;SDS011;41577;47.470;19.080;2022-08-03T01:23:23;1.38;;;1.05;;
53867;SDS011;41577;47.470;19.080;2022-08-03T01:23:52;2.45;;;1.50;;
53867;SDS011;41577;47.470;19.080;2022-08-03T01:24:20;1.35;;;1.20;;
53867;SDS011;41577;47.470;19.080;2022-08-03T01:25:15;1.27;;;1.17;;
53867;SDS011;41577;47.470;19.080;2022-08-03T01:25:50;1.20;;;1.10;;
53867;SDS011;41577;47.470;19.080;2022-08-03T01:26:20;1.02;;;1.00;;
53867;SDS011;41577;47.470;19.080;2022-08-03T01:26:54;1.30;;;0.93;;
53867;SDS011;41577;47.470;19.080;2022-08-03T01:27:20;1.38;;;1.27;;
53867;SDS011;41577;47.470;19.080;2022-08-03T01:27:43;1.60;;;1.40;;
53867;SDS011;41577;47.470;19.080;2022-08-03T01:28:31;1.73;;;1.08;;
53867;SDS011;41577;47.470;19.080;2022-08-03T01:29:03;2.00;;;1.33;;
53867;SDS011;41577;47.470;19.080;2022-08-03T01:29:40;3.60;;;1.65;;
53867;SDS011;41577;47.470;19.080;2022-08-03T01:30:14;0.82;;;0.82;;
53867;SDS011;41577;47.470;19.080;2022-08-03T01:30:32;1.00;;;1.00;;
53867;SDS011;41577;47.470;19.080;2022-08-03T01:30:51;1.40;;;1.30;;
53867;SDS011;41577;47.470;19.080;2022-08-03T01:31:11;1.60;;;0.98;;
53867;SDS011;41577;47.470;19.080;2022-08-03T01:31:35;2.45;;;0.93;;
53867;SDS011;41577;47.470;19.080;2022-08-03T01:31:56;1.00;;;1.00;;
53867;SDS011;41577;47.470;19.080;2022-08-03T01:32:18;1.20;;;1.20;;
53867;SDS011;41577;47.470;19.080;2022-08-03T01:32:39;1.98;;;1.77;;
53867;SDS011;41577;47.470;19.080;2022-08-03T01:32:59;1.77;;;1.42;;
53867;SDS011;41577;47.470;19.080;2022-08-03T01:33:18;2.00;;;1.13;;
53867;SDS011;41577;47.470;19.080;2022-08-03T01:33:39;4.15;;;1.25;;
53867;SDS011;41577;47.470;19.080;2022-08-03T01:34:03;1.35;;;1.25;;
53867;SDS011;41577;47.470;19.080;2022-08-03T01:34:23;2.58;;;1.23;;
53867;SDS011;41577;47.470;19.080;2022-08-03T01:34:47;3.40;;;1.10;;
53867;SDS011;41577;47.470;19.080;2022-08-03T01:35:09;1.30;;;1.05;;
53867;SDS011;41577;47.470;19.080;2022-08-03T01:35:28;2.63;;;1.60;;
53867;SDS011;41577;47.470;19.080;2022-08-03T01:35:52;2.10;;;1.38;;
53867;SDS011;41577;47.470;19.080;2022-08-03T01:36:13;1.30;;;1.17;;
53867;SDS011;41577;47.470;19.080;2022-08-03T01:36:34;1.38;;;1.30;;
53867;SDS011;41577;47.470;19.080;2022-08-03T01:36:53;1.35;;;1.23;;
53867;SDS011;41577;47.470;19.080;2022-08-03T01:37:12;1.60;;;1.20;;
53867;SDS011;41577;47.470;19.080;2022-08-03T01:37:36;1.65;;;1.17;;
53867;SDS011;41577;47.470;19.080;2022-08-03T01:37:57;1.13;;;1.02;;
53867;SDS011;41577;47.470;19.080;2022-08-03T01:38:17;1.38;;;1.17;;
53867;SDS011;41577;47.470;19.080;2022-08-03T01:38:38;5.18;;;1.05;;
53867;SDS011;41577;47.470;19.080;2022-08-03T01:38:57;6.07;;;1.60;;
53867;SDS011;41577;47.470;19.080;2022-08-03T01:39:22;1.45;;;1.35;;
53867;SDS011;41577;47.470;19.080;2022-08-03T01:39:39;1.35;;;1.25;;
53867;SDS011;41577;47.470;19.080;2022-08-03T01:39:57;2.28;;;1.42;;
53867;SDS011;41577;47.470;19.080;2022-08-03T01:40:16;6.50;;;1.52;;
53867;SDS011;41577;47.470;19.080;2022-08-03T01:40:35;4.75;;;1.75;;
53867;SDS011;41577;47.470;19.080;2022-08-03T01:40:54;3.55;;;2.25;;
53867;SDS011;41577;47.470;19.080;2022-08-03T01:41:12;2.60;;;1.85;;
53867;SDS011;41577;47.470;19.080;2022-08-03T01:41:32;1.65;;;1.38;;
53867;SDS011;41577;47.470;19.080;2022-08-03T01:41:52;1.52;;;1.40;;
53867;SDS011;41577;47.470;19.080;2022-08-03T01:42:13;1.67;;;1.40;;